createdAt,value
2022-11-19T00:01:34.995Z,32.04
2022-11-19T00:04:38.983Z,31.89
2022-11-19T00:07:42.751Z,31.85
2022-11-19T00:10:53.457Z,31.78
2022-11-19T00:13:59.498Z,31.69
2022-11-19T00:17:02.542Z,32.08
2022-11-19T00:20:06.220Z,32.10
2022-11-19T00:23:13.952Z,32.09
2022-11-19T00:26:29.324Z,32.04
2022-11-19T00:29:34.311Z,31.58
2022-11-19T00:32:39.365Z,31.43
2022-11-19T00:35:42.621Z,31.07
2022-11-19T00:38:47.788Z,30.87
2022-11-19T00:41:53.279Z,30.82
2022-11-19T00:44:58.200Z,30.84
2022-11-19T00:48:02.834Z,30.79
2022-11-19T00:51:06.793Z,31.60
2022-11-19T00:54:10.860Z,30.91
2022-11-19T00:57:14.904Z,31.40
2022-11-19T01:00:18.820Z,30.61
2022-11-19T01:03:22.450Z,30.30
2022-11-19T01:06:27.003Z,30.21
2022-11-19T01:09:31.755Z,30.23
2022-11-19T01:12:38.595Z,30.23
2022-11-19T01:15:43.292Z,31.02
2022-11-19T01:18:49.536Z,30.55
2022-11-19T01:21:54.594Z,30.53
2022-11-19T01:24:59.193Z,30.43
2022-11-19T01:28:03.432Z,30.42
2022-11-19T01:31:06.951Z,30.36
2022-11-19T01:34:18.868Z,30.38
2022-11-19T01:37:23.154Z,30.37
2022-11-19T01:40:27.220Z,30.33
2022-11-19T01:43:33.428Z,30.35
2022-11-19T01:46:45.064Z,30.45
2022-11-19T01:49:51.715Z,30.21
2022-11-19T01:53:10.890Z,30.32
2022-11-19T01:56:15.857Z,30.25
2022-11-19T01:59:24.160Z,30.23
2022-11-19T02:03:00.149Z,30.21
2022-11-19T02:05:58.171Z,30.10
2022-11-19T02:09:14.127Z,29.97
2022-11-19T02:12:46.637Z,30.14
2022-11-19T02:16:21.676Z,30.05
2022-11-19T02:19:59.158Z,29.96
2022-11-19T02:23:34.849Z,30.74
2022-11-19T02:26:59.231Z,30.71
2022-11-19T02:30:19.508Z,30.41
2022-11-19T02:33:59.366Z,30.20
2022-11-19T02:37:37.422Z,30.43
2022-11-19T02:41:01.415Z,30.35
2022-11-19T02:44:58.948Z,30.36
2022-11-19T02:48:08.575Z,30.39
2022-11-19T02:51:16.916Z,30.27
2022-11-19T02:54:23.796Z,30.19
2022-11-19T02:57:54.793Z,30.25
2022-11-19T03:01:24.295Z,30.05
2022-11-19T03:04:39.684Z,29.80
2022-11-19T03:07:42.776Z,29.73
2022-11-19T03:11:05.656Z,29.92
2022-11-19T03:15:01.998Z,30.05
2022-11-19T03:18:29.641Z,29.80
2022-11-19T03:21:54.334Z,29.74
2022-11-19T03:25:38.515Z,29.55
2022-11-19T03:28:54.825Z,29.42
2022-11-19T03:37:07.438Z,29.49
2022-11-19T03:40:29.120Z,29.42
2022-11-19T03:43:37.112Z,29.34
2022-11-19T03:46:49.998Z,29.24
2022-11-19T03:49:58.220Z,29.26
2022-11-19T03:53:04.929Z,29.21
2022-11-19T03:56:18.787Z,29.27
2022-11-19T03:59:47.443Z,29.35
2022-11-19T04:02:49.878Z,29.35
2022-11-19T04:05:51.888Z,29.26
2022-11-19T04:08:54.644Z,29.18
2022-11-19T04:11:58.433Z,28.73
2022-11-19T04:15:02.191Z,28.93
2022-11-19T04:18:05.630Z,28.98
2022-11-19T04:21:07.497Z,29.01
2022-11-19T04:24:34.437Z,29.11
2022-11-19T04:27:30.581Z,29.12
2022-11-19T04:30:26.863Z,28.90
2022-11-19T04:33:32.689Z,28.81
2022-11-19T04:36:35.424Z,28.61
2022-11-19T04:39:37.403Z,28.30
2022-11-19T04:42:41.564Z,28.32
2022-11-19T04:45:42.423Z,28.00
2022-11-19T04:48:43.505Z,28.01
2022-11-19T04:51:44.364Z,28.42
2022-11-19T04:54:47.404Z,28.37
2022-11-19T04:57:48.717Z,28.34
2022-11-19T05:00:53.776Z,27.78
2022-11-19T05:03:58.714Z,27.72
2022-11-19T05:07:02.472Z,28.19
2022-11-19T05:10:06.882Z,28.23
2022-11-19T05:13:14.428Z,28.40
2022-11-19T05:16:31.484Z,28.68
2022-11-19T05:19:28.401Z,28.71
2022-11-19T05:22:30.931Z,28.77
2022-11-19T05:25:35.489Z,28.76
2022-11-19T05:28:43.440Z,28.76
2022-11-19T05:31:46.533Z,28.74
2022-11-19T05:34:50.642Z,28.68
2022-11-19T05:37:54.052Z,28.55
2022-11-19T05:41:01.885Z,28.67
2022-11-19T05:44:06.268Z,28.62
2022-11-19T05:47:09.884Z,28.03
2022-11-19T05:50:17.516Z,28.43
2022-11-19T05:53:18.650Z,28.54
2022-11-19T05:56:23.143Z,28.47
2022-11-19T05:59:25.569Z,28.44
2022-11-19T06:02:30.934Z,28.38
2022-11-19T06:05:39.823Z,28.42
2022-11-19T06:08:43.169Z,28.42
2022-11-19T06:11:59.194Z,28.34
2022-11-19T06:15:52.251Z,28.70
2022-11-19T06:18:43.272Z,28.60
2022-11-19T06:21:39.667Z,28.33
2022-11-19T06:24:36.592Z,28.19
2022-11-19T06:27:38.507Z,28.22
2022-11-19T06:30:43.431Z,28.27
2022-11-19T06:33:45.601Z,28.27
2022-11-19T06:36:47.808Z,28.26
2022-11-19T06:40:13.264Z,28.42
2022-11-19T06:43:34.599Z,28.36
2022-11-19T06:46:37.302Z,28.40
2022-11-19T06:49:39.337Z,28.37
2022-11-19T06:52:49.342Z,28.41
2022-11-19T06:55:53.366Z,28.47
2022-11-19T06:58:55.180Z,28.35
2022-11-19T07:01:59.177Z,28.34
2022-11-19T07:05:03.562Z,28.29
2022-11-19T07:08:09.383Z,28.15
2022-11-19T07:11:38.228Z,28.16
2022-11-19T07:14:45.115Z,27.95
2022-11-19T07:17:47.211Z,27.81
2022-11-19T07:20:49.206Z,27.73
2022-11-19T07:23:54.904Z,27.71
2022-11-19T07:26:57.657Z,27.62
2022-11-19T07:30:04.393Z,27.55
2022-11-19T07:33:08.289Z,27.61
2022-11-19T07:36:18.318Z,27.60
2022-11-19T07:39:22.700Z,27.58
2022-11-19T07:42:42.491Z,27.63
2022-11-19T07:46:12.172Z,27.67
2022-11-19T07:49:16.068Z,27.49
2022-11-19T07:52:22.899Z,27.41
2022-11-19T07:55:25.230Z,27.34
2022-11-19T07:58:27.564Z,27.23
2022-11-19T08:01:31.425Z,27.18
2022-11-19T08:04:35.572Z,27.19
2022-11-19T08:07:39.173Z,27.21
2022-11-19T08:10:42.744Z,27.15
2022-11-19T08:13:42.814Z,27.18
2022-11-19T08:16:59.848Z,27.20
2022-11-19T08:20:02.615Z,27.29
2022-11-19T08:23:06.786Z,27.18
2022-11-19T08:26:10.525Z,27.20
2022-11-19T08:29:16.537Z,27.20
2022-11-19T08:32:22.543Z,27.23
2022-11-19T08:35:28.109Z,27.29
2022-11-19T08:38:37.244Z,27.16
2022-11-19T08:42:00.103Z,27.23
2022-11-19T08:44:59.082Z,27.08
2022-11-19T08:48:16.133Z,27.98
2022-11-19T08:51:02.963Z,27.54
2022-11-19T08:54:09.510Z,27.47
2022-11-19T08:57:14.290Z,27.42
2022-11-19T09:00:45.969Z,27.45
2022-11-19T09:08:07.883Z,27.56
2022-11-19T09:11:29.775Z,27.38
2022-11-19T09:14:28.189Z,27.32
2022-11-19T09:17:40.132Z,27.35
2022-11-19T09:20:46.860Z,27.39
2022-11-19T09:24:07.969Z,27.29
2022-11-19T09:27:13.372Z,27.24
2022-11-19T09:30:33.092Z,26.64
2022-11-19T09:33:39.396Z,26.20
2022-11-19T09:36:46.177Z,26.01
2022-11-19T09:39:51.781Z,25.85
2022-11-19T09:43:30.997Z,25.91
2022-11-19T09:46:54.903Z,25.74
2022-11-19T09:50:26.887Z,25.61
2022-11-19T09:53:38.914Z,25.52
2022-11-19T09:56:47.956Z,25.45
2022-11-19T09:59:59.061Z,25.36
2022-11-19T10:03:02.711Z,25.32
2022-11-19T10:06:22.863Z,25.28
2022-11-19T10:09:42.966Z,25.93
2022-11-19T10:12:56.349Z,25.36
2022-11-19T10:16:39.175Z,25.32
2022-11-19T10:20:30.859Z,25.40
2022-11-19T10:23:57.362Z,25.21
2022-11-19T10:27:32.004Z,25.17
2022-11-19T10:30:39.636Z,25.01
2022-11-19T10:34:34.735Z,25.03
2022-11-19T10:37:48.816Z,24.87
2022-11-19T10:41:02.596Z,24.80
2022-11-19T10:44:47.468Z,24.89
2022-11-19T10:48:29.793Z,24.91
2022-11-19T10:51:47.025Z,25.01
2022-11-19T10:54:54.761Z,25.07
2022-11-19T10:57:59.090Z,25.08
2022-11-19T11:01:06.056Z,25.13
2022-11-19T11:04:27.748Z,25.24
2022-11-19T11:07:33.592Z,25.26
2022-11-19T11:10:43.274Z,25.26
2022-11-19T11:14:14.822Z,25.27
2022-11-19T11:17:22.996Z,25.31
2022-11-19T11:20:34.703Z,25.27
2022-11-19T11:23:43.067Z,25.19
2022-11-19T11:26:54.806Z,25.20
2022-11-19T11:30:18.571Z,25.23
2022-11-19T11:34:01.949Z,25.34
2022-11-19T11:37:06.812Z,25.23
2022-11-19T11:40:14.905Z,25.13
2022-11-19T11:43:22.025Z,25.09
2022-11-19T11:46:32.111Z,25.04
2022-11-19T11:49:39.167Z,25.01
2022-11-19T11:52:54.418Z,26.14
2022-11-19T11:56:11.665Z,26.27
2022-11-19T11:59:44.330Z,25.82
2022-11-19T12:02:50.466Z,26.24
2022-11-19T12:06:20.714Z,26.21
2022-11-19T12:09:54.219Z,25.70
2022-11-19T12:13:06.922Z,25.63
2022-11-19T12:16:31.639Z,26.14
2022-11-19T12:19:52.147Z,25.46
2022-11-19T12:23:10.675Z,26.06
2022-11-19T12:26:46.084Z,26.06
2022-11-19T12:30:10.611Z,26.21
2022-11-19T12:33:54.900Z,25.64
2022-11-19T12:37:16.616Z,26.10
2022-11-19T12:40:59.808Z,26.18
2022-11-19T12:44:53.103Z,26.16
2022-11-19T12:48:28.500Z,26.15
2022-11-19T12:52:01.899Z,26.21
2022-11-19T12:55:34.874Z,26.31
2022-11-19T12:58:55.575Z,26.27
2022-11-19T13:02:31.243Z,26.19
2022-11-19T13:05:53.994Z,26.18
2022-11-19T13:09:33.418Z,26.22
2022-11-19T13:12:51.630Z,26.19
2022-11-19T13:16:00.771Z,26.15
2022-11-19T13:19:08.602Z,26.18
2022-11-19T13:22:35.779Z,26.21
2022-11-19T13:26:02.778Z,26.41
2022-11-19T13:29:46.120Z,26.48
2022-11-19T13:32:59.073Z,26.50
2022-11-19T13:36:22.760Z,26.41
2022-11-19T13:39:50.253Z,26.38
2022-11-19T13:43:31.458Z,26.38
2022-11-19T13:46:51.154Z,26.42
2022-11-19T13:50:02.394Z,26.49
2022-11-19T13:53:29.645Z,26.63
2022-11-19T13:56:30.690Z,26.59
2022-11-19T13:59:49.072Z,26.79
2022-11-19T14:03:03.440Z,26.91
2022-11-19T14:06:16.563Z,27.08
2022-11-19T14:30:34.468Z,27.88
2022-11-19T14:34:15.411Z,28.35
2022-11-19T14:37:55.528Z,28.73
2022-11-19T15:15:04.756Z,30.17
2022-11-19T15:18:59.861Z,30.31
2022-11-19T15:22:14.728Z,30.38
2022-11-19T15:59:12.458Z,33.30
2022-11-19T16:03:47.213Z,34.70
2022-11-19T16:19:51.833Z,33.79
2022-11-19T16:24:51.146Z,33.71
2022-11-19T16:28:08.277Z,34.02
2022-11-19T16:31:20.603Z,34.47
2022-11-19T16:34:56.817Z,35.39
2022-11-19T16:38:11.311Z,36.54
2022-11-19T16:46:11.494Z,37.71
2022-11-19T16:58:52.018Z,39.21
2022-11-19T17:01:47.999Z,39.72
2022-11-19T17:04:51.517Z,39.85
2022-11-19T17:08:07.462Z,39.56
2022-11-19T17:11:51.420Z,38.66
2022-11-19T17:15:00.661Z,37.40
2022-11-19T17:18:11.105Z,36.86
2022-11-19T17:25:11.418Z,37.03
2022-11-19T17:28:28.447Z,36.76
2022-11-19T17:31:53.881Z,36.60
2022-11-19T17:39:02.630Z,35.86
2022-11-19T18:07:46.126Z,37.23
2022-11-19T18:21:15.753Z,37.10
2022-11-19T18:28:13.622Z,35.52
2022-11-19T18:31:20.432Z,34.89
2022-11-19T18:35:02.503Z,34.73
2022-11-19T18:38:19.743Z,35.45
2022-11-19T18:41:34.580Z,34.54
2022-11-19T18:48:50.689Z,34.08
2022-11-19T18:51:52.103Z,33.67
2022-11-19T18:54:59.449Z,33.37
2022-11-19T19:01:22.751Z,32.95
2022-11-19T19:04:51.051Z,32.99
2022-11-19T19:08:00.441Z,33.02
2022-11-19T19:11:43.699Z,33.42
2022-11-19T19:15:16.975Z,33.17
2022-11-19T19:18:56.579Z,33.15
2022-11-19T19:22:11.385Z,33.05
2022-11-19T19:25:20.966Z,33.68
2022-11-19T19:28:32.236Z,33.88
2022-11-19T19:31:43.791Z,33.55
2022-11-19T19:34:52.709Z,33.62
2022-11-19T19:38:03.592Z,33.14
2022-11-19T19:41:20.828Z,33.23
2022-11-19T19:44:24.028Z,32.89
2022-11-19T19:47:30.844Z,32.84
2022-11-19T19:50:36.145Z,32.83
2022-11-19T19:53:43.240Z,32.74
2022-11-19T19:57:27.746Z,33.15
2022-11-19T20:00:33.396Z,32.84
2022-11-19T20:04:00.494Z,32.76
2022-11-19T20:06:59.340Z,32.67
2022-11-19T20:10:03.661Z,32.59
2022-11-19T20:13:38.129Z,32.64
2022-11-19T20:17:00.554Z,32.69
2022-11-19T20:20:12.457Z,32.66
2022-11-19T20:23:30.889Z,32.56
2022-11-19T20:26:48.209Z,32.51
2022-11-19T20:30:12.324Z,32.50
2022-11-19T20:33:24.467Z,32.50
2022-11-19T20:36:32.168Z,32.45
2022-11-19T20:39:43.309Z,32.41
2022-11-19T20:43:08.852Z,32.37
2022-11-19T20:46:24.819Z,32.52
2022-11-19T20:49:31.508Z,32.36
2022-11-19T20:52:37.912Z,32.32
2022-11-19T20:56:03.606Z,32.41
2022-11-19T20:59:07.973Z,33.43
2022-11-19T21:02:15.669Z,33.56
2022-11-19T21:05:19.515Z,33.57
2022-11-19T21:08:25.102Z,33.57
2022-11-19T21:11:34.168Z,33.64
2022-11-19T21:15:15.773Z,33.04
2022-11-19T21:18:24.472Z,32.47
2022-11-19T21:21:45.071Z,32.26
2022-11-19T21:25:12.498Z,32.16
2022-11-19T21:28:51.971Z,32.19
2022-11-19T21:35:43.422Z,32.21
2022-11-19T21:38:59.893Z,32.12
2022-11-19T21:42:09.991Z,31.99
2022-11-19T21:45:15.637Z,31.92
2022-11-19T21:48:19.701Z,31.85
2022-11-19T21:51:25.086Z,31.81
2022-11-19T21:57:52.132Z,31.76
2022-11-19T22:00:55.578Z,31.71
2022-11-19T22:04:00.010Z,31.59
2022-11-19T22:07:03.651Z,31.48
2022-11-19T22:10:07.521Z,31.42
2022-11-19T22:13:12.603Z,31.57
2022-11-19T23:17:55.503Z,30.88
2022-11-19T23:20:58.990Z,30.36
2022-11-19T23:24:03.469Z,30.14
2022-11-19T23:27:07.268Z,29.96
2022-11-19T23:30:11.725Z,29.82
2022-11-19T23:33:15.517Z,29.92
2022-11-19T23:36:30.452Z,29.85
2022-11-19T23:39:31.793Z,29.81
2022-11-19T23:42:35.463Z,29.84
2022-11-19T23:45:52.909Z,29.87
2022-11-19T23:48:51.951Z,29.65
2022-11-19T23:52:02.026Z,29.49
2022-11-19T23:55:07.254Z,29.26
2022-11-19T23:58:10.824Z,29.08
